Time;durP1;ratioP1;P1;durP2;ratioP2;P2;SDS_P1;SDS_P2;PMS_P1;PMS_P2;Temp;Humidity;BMP_temperature;BMP_pressure;BME280_temperature;BME280_humidity;BME280_pressure;Samples;Min_cycle;Max_cycle;Signal;HPM_P1;HPM_P2
2022/02/13 00:00:31;;;;;;;21.83;17.33;;;;;21.00;100849.00;;;;2059626;28;20810;-73
2022/02/13 00:01:31;;;;;;;20.80;18.20;;;;;21.00;100846.00;;;;2059909;28;20871;-73
2022/02/13 00:02:31;;;;;;;19.27;17.37;;;;;21.00;100849.00;;;;2060059;28;20785;-73
2022/02/13 00:03:32;;;;;;;19.80;17.70;;;;;21.00;100848.00;;;;2060654;28;20708;-73
2022/02/13 00:04:32;;;;;;;19.17;17.30;;;;;21.00;100837.00;;;;2060756;28;20687;-72
2022/02/13 00:05:33;;;;;;;19.43;17.00;;;;;21.00;100848.00;;;;2060612;28;20853;-73
2022/02/13 00:06:33;;;;;;;17.80;15.90;;;;;21.00;100833.00;;;;2059957;28;20699;-73
2022/02/13 00:07:34;;;;;;;17.73;15.70;;;;;21.00;100838.00;;;;2055490;28;20220;-73
2022/02/13 00:08:34;;;;;;;17.40;15.60;;;;;21.00;100837.00;;;;2063350;28;20212;-73
2022/02/13 00:09:36;;;;;;;18.23;16.33;;;;;21.00;100837.00;;;;2061673;28;20294;-73
2022/02/13 00:10:37;;;;;;;16.30;14.70;;;;;21.00;100838.00;;;;2059583;28;20216;-73
2022/02/13 00:11:37;;;;;;;16.70;14.90;;;;;21.00;100834.00;;;;2059677;28;20710;-73
2022/02/13 00:12:38;;;;;;;16.83;14.30;;;;;21.00;100827.00;;;;2062055;28;20543;-73
2022/02/13 00:13:38;;;;;;;17.13;14.90;;;;;20.90;100830.00;;;;2059848;28;20226;-73
2022/02/13 00:14:38;;;;;;;18.33;14.63;;;;;20.90;100820.00;;;;2059513;28;20215;-74
2022/02/13 00:15:39;;;;;;;15.87;13.80;;;;;20.90;100820.00;;;;2060335;28;20218;-73
2022/02/13 00:16:39;;;;;;;16.00;14.40;;;;;20.90;100820.00;;;;2060700;28;20642;-74
2022/02/13 00:17:39;;;;;;;16.50;13.97;;;;;20.90;100816.00;;;;2060452;28;20584;-74
2022/02/13 00:18:40;;;;;;;17.27;13.80;;;;;20.90;100818.00;;;;2057660;28;20226;-74
2022/02/13 00:19:41;;;;;;;15.57;13.93;;;;;20.90;100823.00;;;;2059034;28;20219;-74
2022/02/13 00:20:41;;;;;;;16.90;14.20;;;;;20.90;100816.00;;;;2059741;28;20227;-73
2022/02/13 00:21:41;;;;;;;15.90;14.23;;;;;20.90;100815.00;;;;2060540;28;20211;-74
2022/02/13 00:22:42;;;;;;;14.93;13.33;;;;;20.90;100816.00;;;;2061280;28;20223;-73
2022/02/13 00:23:42;;;;;;;15.10;13.50;;;;;20.90;100816.00;;;;2059889;28;20218;-73
2022/02/13 00:24:43;;;;;;;15.70;12.87;;;;;20.90;100808.00;;;;2060503;28;20239;-73
2022/02/13 00:25:44;;;;;;;14.45;12.60;;;;;20.90;100807.00;;;;2060640;28;20215;-73
2022/02/13 00:26:44;;;;;;;14.40;11.97;;;;;20.90;100811.00;;;;2060637;28;20219;-74
2022/02/13 00:27:45;;;;;;;13.23;11.87;;;;;20.90;100812.00;;;;2062614;28;20218;-73
2022/02/13 00:28:45;;;;;;;12.45;11.27;;;;;20.90;100787.00;;;;2059806;28;20645;-73
2022/02/13 00:29:46;;;;;;;14.30;11.93;;;;;20.90;100798.00;;;;2059656;28;20254;-74
2022/02/13 00:30:46;;;;;;;13.60;12.13;;;;;20.90;100798.00;;;;2059495;28;20270;-74
2022/02/13 00:31:47;;;;;;;13.77;11.40;;;;;20.90;100805.00;;;;2059676;28;20227;-74
2022/02/13 00:32:50;;;;;;;13.50;12.10;;;;;20.90;100804.00;;;;2060408;28;20714;-74
2022/02/13 00:33:51;;;;;;;12.18;10.98;;;;;20.90;100799.00;;;;2067193;28;20301;-73
2022/02/13 00:34:51;;;;;;;11.80;9.97;;;;;20.90;100800.00;;;;2067570;28;20206;-74
2022/02/13 00:35:51;;;;;;;12.20;10.90;;;;;20.80;100800.00;;;;2059793;28;20497;-72
2022/02/13 00:36:51;;;;;;;11.60;10.40;;;;;20.80;100788.00;;;;2061904;28;20234;-73
2022/02/13 00:37:52;;;;;;;11.73;10.63;;;;;20.90;100792.00;;;;2058988;28;20210;-73
2022/02/13 00:38:52;;;;;;;12.40;10.90;;;;;20.80;100795.00;;;;2058925;28;20219;-73
2022/02/13 00:39:52;;;;;;;12.07;10.83;;;;;20.80;100788.00;;;;2062427;28;20203;-73
2022/02/13 00:40:53;;;;;;;10.90;9.80;;;;;20.80;100789.00;;;;2058229;28;20203;-74
2022/02/13 00:41:54;;;;;;;11.13;9.90;;;;;20.80;100791.00;;;;2058425;28;20235;-73
2022/02/13 00:42:54;;;;;;;11.03;9.93;;;;;20.80;100787.00;;;;2058452;28;20203;-74
2022/02/13 00:43:54;;;;;;;11.00;9.90;;;;;20.80;100787.00;;;;2060856;28;20686;-73
2022/02/13 00:44:54;;;;;;;12.13;9.67;;;;;20.80;100785.00;;;;2067583;28;20578;-74
2022/02/13 00:45:55;;;;;;;11.37;10.17;;;;;20.80;100793.00;;;;2059777;28;20568;-73
2022/02/13 00:46:55;;;;;;;11.60;10.20;;;;;20.80;100790.00;;;;2059796;28;20725;-73
2022/02/13 00:47:56;;;;;;;10.47;9.17;;;;;20.80;100786.00;;;;2059703;28;20285;-73
2022/02/13 00:48:56;;;;;;;10.90;9.80;;;;;20.80;100785.00;;;;2059598;28;20207;-73
2022/02/13 00:49:56;;;;;;;10.23;9.23;;;;;20.80;100787.00;;;;2058179;28;20207;-73
2022/02/13 00:50:57;;;;;;;10.13;9.23;;;;;20.80;100793.00;;;;2058397;28;20210;-73
2022/02/13 00:51:57;;;;;;;9.77;8.77;;;;;20.80;100783.00;;;;2066630;28;20226;-73
2022/02/13 00:52:57;;;;;;;9.43;8.33;;;;;20.80;100783.00;;;;2059361;28;20290;-73
2022/02/13 00:54:01;;;;;;;9.73;8.80;;;;;20.80;100779.00;;;;2059620;28;20203;-73
2022/02/13 00:55:01;;;;;;;10.02;8.80;;;;;20.80;100787.00;;;;2059965;28;20226;-74
2022/02/13 00:56:02;;;;;;;9.73;8.73;;;;;20.70;100780.00;;;;2067546;28;20233;-73
2022/02/13 00:57:02;;;;;;;8.80;8.00;;;;;20.80;100782.00;;;;2060160;28;20944;-73
2022/02/13 00:58:02;;;;;;;10.43;8.90;;;;;20.80;100766.00;;;;2059302;28;20269;-73
2022/02/13 00:59:03;;;;;;;8.97;8.07;;;;;20.80;100781.00;;;;2059523;28;20199;-73
2022/02/13 01:00:04;;;;;;;9.60;8.40;;;;;20.70;100786.00;;;;2059380;28;20211;-73
2022/02/13 01:01:05;;;;;;;9.90;8.07;;;;;20.70;100783.00;;;;2059318;28;20270;-74
2022/02/13 01:02:05;;;;;;;10.77;8.90;;;;;20.70;100783.00;;;;2059677;28;20258;-74
2022/02/13 01:03:06;;;;;;;9.60;7.97;;;;;20.70;100789.00;;;;2059026;28;20463;-73
2022/02/13 01:04:06;;;;;;;9.00;8.10;;;;;20.80;100784.00;;;;2060220;28;20219;-74
2022/02/13 01:05:06;;;;;;;8.53;7.73;;;;;20.80;100790.00;;;;2060221;28;20686;-73
2022/02/13 01:06:07;;;;;;;8.63;7.83;;;;;20.70;100772.00;;;;2062933;28;20218;-74
2022/02/13 01:07:07;;;;;;;9.43;7.77;;;;;20.80;100782.00;;;;2058859;28;20590;-73
2022/02/13 01:08:07;;;;;;;8.60;7.80;;;;;20.70;100792.00;;;;2050630;28;20243;-73
2022/02/13 01:09:08;;;;;;;8.27;7.47;;;;;20.70;100792.00;;;;2062007;28;20211;-73
2022/02/13 01:10:08;;;;;;;8.07;7.23;;;;;20.70;100789.00;;;;2070383;28;20213;-74
2022/02/13 01:11:08;;;;;;;8.43;7.53;;;;;20.70;100786.00;;;;2066613;28;20214;-73
2022/02/13 01:12:09;;;;;;;8.07;7.03;;;;;20.70;100784.00;;;;2061126;28;20231;-73
2022/02/13 01:13:10;;;;;;;8.10;6.60;;;;;20.70;100783.00;;;;2060052;28;20253;-73
2022/02/13 01:14:10;;;;;;;7.80;7.00;;;;;20.70;100781.00;;;;2059571;28;20458;-73
2022/02/13 01:15:10;;;;;;;8.13;7.33;;;;;20.70;100781.00;;;;2059378;28;20215;-73
2022/02/13 01:16:11;;;;;;;7.70;7.00;;;;;20.70;100785.00;;;;2059368;28;20239;-73
2022/02/13 01:17:11;;;;;;;7.57;6.77;;;;;20.70;100784.00;;;;2059338;28;20231;-73
2022/02/13 01:18:12;;;;;;;7.50;6.40;;;;;20.70;100776.00;;;;2059350;28;20212;-74
2022/02/13 01:19:12;;;;;;;8.02;6.95;;;;;20.70;100780.00;;;;2059972;28;20218;-73
2022/02/13 01:20:13;;;;;;;7.83;7.00;;;;;20.70;100770.00;;;;2059299;28;20713;-74
2022/02/13 01:21:13;;;;;;;8.23;6.70;;;;;20.70;100779.00;;;;2058780;28;20215;-73
2022/02/13 01:22:13;;;;;;;7.90;6.70;;;;;20.70;100777.00;;;;2059671;28;20734;-74
2022/02/13 01:23:14;;;;;;;7.57;6.40;;;;;20.70;100784.00;;;;2059033;28;20215;-73
2022/02/13 01:24:14;;;;;;;6.97;6.27;;;;;20.70;100774.00;;;;2059149;28;20219;-74
2022/02/13 01:25:14;;;;;;;7.10;6.40;;;;;20.70;100766.00;;;;2061828;28;20694;-74
2022/02/13 01:26:15;;;;;;;8.13;7.03;;;;;20.70;100774.00;;;;2060041;28;20238;-73
2022/02/13 01:27:15;;;;;;;6.87;6.20;;;;;20.60;100777.00;;;;2058747;28;20215;-73
2022/02/13 01:28:16;;;;;;;6.70;5.90;;;;;20.60;100772.00;;;;2058556;28;20292;-74
2022/02/13 01:29:16;;;;;;;6.70;6.10;;;;;20.60;100768.00;;;;2058371;28;20221;-74
2022/02/13 01:30:16;;;;;;;6.70;6.07;;;;;20.60;100781.00;;;;2058560;28;22662;-73
2022/02/13 01:31:17;;;;;;;6.30;5.70;;;;;20.60;100745.00;;;;2059387;28;21091;-73
2022/02/13 01:32:17;;;;;;;6.40;5.80;;;;;20.60;100763.00;;;;2060066;28;20227;-73
2022/02/13 01:33:17;;;;;;;6.40;5.80;;;;;20.70;100755.00;;;;2059321;28;20302;-74
2022/02/13 01:34:21;;;;;;;6.37;5.77;;;;;20.60;100753.00;;;;2058456;28;20226;-74
2022/02/13 01:35:21;;;;;;;6.70;6.00;;;;;20.60;100759.00;;;;2059316;28;20242;-73
2022/02/13 01:36:22;;;;;;;7.03;5.87;;;;;20.60;100759.00;;;;2060643;28;20230;-73
2022/02/13 01:37:22;;;;;;;9.10;6.30;;;;;20.60;100760.00;;;;2058791;28;20238;-74
2022/02/13 01:38:22;;;;;;;6.13;5.53;;;;;20.60;100754.00;;;;2057258;28;20232;-74
2022/02/13 01:39:23;;;;;;;6.00;5.40;;;;;20.60;100760.00;;;;2059396;28;20702;-74
2022/02/13 01:40:23;;;;;;;7.00;6.30;;;;;20.60;100754.00;;;;2059558;28;20560;-73
2022/02/13 01:41:23;;;;;;;6.70;5.53;;;;;20.60;100746.00;;;;2059326;28;20218;-74
2022/02/13 01:42:24;;;;;;;6.70;5.83;;;;;20.60;100747.00;;;;2059454;28;20207;-74
2022/02/13 01:43:24;;;;;;;5.90;5.30;;;;;20.60;100749.00;;;;2057572;28;20214;-74
2022/02/13 01:44:30;;;;;;;6.00;5.40;;;;;20.60;100751.00;;;;2058847;28;20266;-74
2022/02/13 01:45:30;;;;;;;5.38;4.88;;;;;20.60;100755.00;;;;2058714;28;20219;-74
2022/02/13 01:46:30;;;;;;;5.93;5.30;;;;;20.60;100749.00;;;;2050131;28;20927;-72
2022/02/13 01:47:33;;;;;;;6.53;5.80;;;;;20.60;100745.00;;;;2049986;28;20399;-71
2022/02/13 01:48:34;;;;;;;5.65;5.15;;;;;20.60;100748.00;;;;2058629;28;20203;-73
2022/02/13 01:49:34;;;;;;;5.70;5.20;;;;;20.60;100741.00;;;;2058779;28;20611;-74
2022/02/13 01:50:35;;;;;;;5.83;5.27;;;;;20.60;100741.00;;;;2058473;28;20220;-73
2022/02/13 01:51:36;;;;;;;6.10;5.18;;;;;20.60;100738.00;;;;2058625;28;20203;-73
2022/02/13 01:52:37;;;;;;;5.87;5.13;;;;;20.60;100741.00;;;;2050245;28;20211;-73
2022/02/13 01:53:37;;;;;;;5.70;5.20;;;;;20.50;100733.00;;;;2042523;28;20215;-73
2022/02/13 01:54:38;;;;;;;5.60;4.80;;;;;20.60;100726.00;;;;2058480;28;20214;-73
2022/02/13 01:55:38;;;;;;;6.00;5.40;;;;;20.60;100737.00;;;;2059239;28;20211;-73
2022/02/13 01:56:38;;;;;;;5.33;4.83;;;;;20.60;100734.00;;;;2053423;28;20247;-73
2022/02/13 01:57:39;;;;;;;5.70;5.20;;;;;20.50;100731.00;;;;2053878;28;20243;-73
2022/02/13 01:58:39;;;;;;;5.77;5.03;;;;;20.50;100732.00;;;;2058994;28;20659;-73
2022/02/13 01:59:40;;;;;;;7.30;4.90;;;;;20.50;100730.00;;;;2066529;28;20912;-73
2022/02/13 02:00:40;;;;;;;5.60;4.80;;;;;20.50;100735.00;;;;2062251;28;20703;-73
2022/02/13 02:01:41;;;;;;;4.90;4.40;;;;;20.50;100726.00;;;;2062862;28;20215;-73
2022/02/13 02:02:41;;;;;;;5.00;4.50;;;;;20.50;100734.00;;;;2058862;28;20214;-73
2022/02/13 02:03:41;;;;;;;5.30;4.47;;;;;20.50;100741.00;;;;2059386;28;20204;-73
2022/02/13 02:04:42;;;;;;;5.70;4.97;;;;;20.50;100734.00;;;;2059719;28;20707;-73
2022/02/13 02:05:42;;;;;;;5.47;4.90;;;;;20.50;100712.00;;;;2058708;28;20669;-73
2022/02/13 02:06:42;;;;;;;4.97;4.30;;;;;20.50;100733.00;;;;2050383;28;20215;-73
2022/02/13 02:07:43;;;;;;;5.20;4.70;;;;;20.50;100738.00;;;;2058276;28;20679;-73
2022/02/13 02:08:43;;;;;;;5.70;4.70;;;;;20.50;100727.00;;;;2059515;28;20215;-74
2022/02/13 02:09:47;;;;;;;6.70;4.53;;;;;20.50;100736.00;;;;2058690;28;20200;-73
2022/02/13 02:10:50;;;;;;;4.45;4.05;;;;;20.50;100742.00;;;;2050756;28;20215;-73
2022/02/13 02:11:51;;;;;;;4.88;4.43;;;;;20.50;100743.00;;;;2058916;28;20242;-73
2022/02/13 02:12:51;;;;;;;4.80;4.30;;;;;20.50;100749.00;;;;2068581;28;20748;-73
2022/02/13 02:13:51;;;;;;;4.60;4.20;;;;;20.50;100742.00;;;;2061531;28;20215;-73
2022/02/13 02:14:52;;;;;;;5.73;4.63;;;;;20.50;100745.00;;;;2062652;28;20234;-73
2022/02/13 02:15:52;;;;;;;4.60;4.20;;;;;20.50;100741.00;;;;2059502;28;20279;-73
2022/02/13 02:16:52;;;;;;;4.67;4.17;;;;;20.50;100740.00;;;;2059864;28;20208;-72
2022/02/13 02:17:53;;;;;;;4.60;4.20;;;;;20.50;100739.00;;;;2057968;28;20310;-72
2022/02/13 02:18:53;;;;;;;6.07;4.50;;;;;20.50;100737.00;;;;2058927;28;20682;-73
2022/02/13 02:19:53;;;;;;;4.80;4.13;;;;;20.50;100740.00;;;;2066782;28;20221;-73
2022/02/13 02:20:56;;;;;;;5.03;3.83;;;;;20.50;100735.00;;;;2062126;28;20260;-73
2022/02/13 02:21:57;;;;;;;4.50;4.10;;;;;20.50;100731.00;;;;2062399;28;20226;-73
2022/02/13 02:22:57;;;;;;;4.40;4.00;;;;;20.50;100729.00;;;;2058557;28;20215;-73
2022/02/13 02:23:57;;;;;;;4.30;3.90;;;;;20.50;100662.00;;;;2062328;28;20211;-73
2022/02/13 02:24:58;;;;;;;4.83;4.43;;;;;20.40;100724.00;;;;2062301;28;20215;-74
2022/02/13 02:25:58;;;;;;;5.80;4.10;;;;;20.40;100724.00;;;;2059337;28;20674;-73
2022/02/13 02:27:00;;;;;;;4.60;3.93;;;;;20.40;100713.00;;;;2059362;28;20233;-73
2022/02/13 02:28:00;;;;;;;4.97;4.47;;;;;20.50;100720.00;;;;2058798;28;20678;-73
2022/02/13 02:29:00;;;;;;;4.73;4.20;;;;;20.40;100726.00;;;;2058355;28;20301;-73
2022/02/13 02:30:01;;;;;;;5.37;4.30;;;;;20.40;100721.00;;;;2058197;28;20222;-73
2022/02/13 02:31:01;;;;;;;5.10;4.37;;;;;20.40;100723.00;;;;2057565;28;20219;-73
2022/02/13 02:32:01;;;;;;;5.27;3.90;;;;;20.40;100719.00;;;;2057652;28;20735;-73
2022/02/13 02:33:02;;;;;;;4.60;4.03;;;;;20.40;100717.00;;;;2059062;28;20707;-73
2022/02/13 02:34:02;;;;;;;5.80;4.40;;;;;20.40;100714.00;;;;2059309;28;20231;-73
2022/02/13 02:35:03;;;;;;;4.93;4.10;;;;;20.40;100710.00;;;;2060851;28;20297;-73
2022/02/13 02:36:03;;;;;;;4.10;3.70;;;;;20.40;100697.00;;;;2061594;28;20215;-73
2022/02/13 02:37:05;;;;;;;5.40;3.73;;;;;20.40;100701.00;;;;2060210;28;20454;-74
2022/02/13 02:38:05;;;;;;;3.88;3.55;;;;;20.40;100697.00;;;;2061125;28;20612;-73
2022/02/13 02:39:06;;;;;;;5.00;4.17;;;;;20.40;100693.00;;;;2060068;28;20215;-74
2022/02/13 02:40:07;;;;;;;4.23;3.83;;;;;20.40;100685.00;;;;2060486;28;20301;-73
2022/02/13 02:41:07;;;;;;;4.40;4.00;;;;;20.40;100689.00;;;;2060716;28;20229;-73
2022/02/13 02:42:11;;;;;;;5.07;4.37;;;;;20.40;100691.00;;;;2060980;28;21118;-73
2022/02/13 02:43:12;;;;;;;4.60;4.05;;;;;20.30;100693.00;;;;2060966;28;20222;-73
2022/02/13 02:44:13;;;;;;;5.50;3.90;;;;;20.40;100693.00;;;;2064374;28;20219;-73
2022/02/13 02:45:14;;;;;;;4.40;4.00;;;;;20.40;100689.00;;;;2060909;28;20281;-73
2022/02/13 02:46:14;;;;;;;4.82;4.00;;;;;20.40;100681.00;;;;2052368;28;20231;-73
2022/02/13 02:47:15;;;;;;;3.87;3.57;;;;;20.40;100683.00;;;;2043354;28;20240;-73
2022/02/13 02:48:15;;;;;;;3.73;3.43;;;;;20.40;100658.00;;;;2060602;28;20219;-73
2022/02/13 02:49:15;;;;;;;3.97;3.50;;;;;20.40;100675.00;;;;2062142;28;20211;-74
2022/02/13 02:50:16;;;;;;;3.90;3.53;;;;;20.40;100677.00;;;;2061628;28;20239;-73
2022/02/13 02:51:16;;;;;;;3.80;3.30;;;;;20.30;100673.00;;;;2061330;28;20285;-73
2022/02/13 02:52:18;;;;;;;5.33;3.73;;;;;20.40;100674.00;;;;2061756;28;20226;-73
2022/02/13 02:53:18;;;;;;;4.30;3.90;;;;;20.40;100664.00;;;;2060805;28;20582;-73
2022/02/13 02:54:18;;;;;;;4.30;3.70;;;;;20.40;100671.00;;;;2061170;28;20219;-73
2022/02/13 02:55:19;;;;;;;4.20;3.80;;;;;20.40;100665.00;;;;2061566;28;20281;-73
2022/02/13 02:56:19;;;;;;;4.03;3.73;;;;;20.30;100657.00;;;;2061470;28;20219;-73
2022/02/13 02:57:19;;;;;;;3.60;3.30;;;;;20.30;100660.00;;;;2061545;28;20223;-73
2022/02/13 02:58:20;;;;;;;4.57;3.50;;;;;20.30;100660.00;;;;2063441;28;20218;-73
2022/02/13 02:59:20;;;;;;;4.83;4.17;;;;;20.30;100665.00;;;;2061557;28;20274;-73
2022/02/13 03:00:20;;;;;;;4.07;3.77;;;;;20.30;100659.00;;;;2061445;28;20222;-73
2022/02/13 03:01:21;;;;;;;4.10;3.70;;;;;20.40;100663.00;;;;2062071;28;20208;-73
2022/02/13 03:02:21;;;;;;;3.70;3.40;;;;;20.30;100658.00;;;;2062314;28;20314;-72
2022/02/13 03:03:22;;;;;;;3.50;3.20;;;;;20.30;100658.00;;;;2062086;28;20704;-72
2022/02/13 03:04:22;;;;;;;4.70;3.43;;;;;20.30;100655.00;;;;2062269;28;20686;-72
2022/02/13 03:05:22;;;;;;;4.50;3.40;;;;;20.30;100655.00;;;;2061882;28;20298;-73
2022/02/13 03:06:23;;;;;;;4.93;3.80;;;;;20.30;100647.00;;;;2061529;28;20294;-72
2022/02/13 03:07:23;;;;;;;4.00;3.03;;;;;20.30;100654.00;;;;2061394;28;20215;-72
2022/02/13 03:08:24;;;;;;;4.40;3.13;;;;;20.30;100649.00;;;;2061217;28;20727;-73
2022/02/13 03:09:24;;;;;;;3.60;3.20;;;;;20.30;100640.00;;;;2064924;28;20242;-73
2022/02/13 03:10:24;;;;;;;3.97;3.67;;;;;20.30;100640.00;;;;2064658;28;20273;-73
2022/02/13 03:11:25;;;;;;;3.90;3.00;;;;;20.30;100633.00;;;;2062300;28;20224;-73
2022/02/13 03:12:25;;;;;;;4.10;3.40;;;;;20.30;100646.00;;;;2063936;28;20648;-73
2022/02/13 03:13:25;;;;;;;3.43;2.83;;;;;20.30;100640.00;;;;2061969;28;20213;-73
2022/02/13 03:14:26;;;;;;;4.10;3.70;;;;;20.30;100634.00;;;;2061267;28;20207;-73
2022/02/13 03:15:26;;;;;;;5.70;3.70;;;;;20.30;100608.00;;;;2061361;28;20242;-73
2022/02/13 03:16:27;;;;;;;4.10;3.10;;;;;20.30;100627.00;;;;2061559;28;20215;-73
2022/02/13 03:17:27;;;;;;;5.00;3.50;;;;;20.30;100627.00;;;;2061536;28;20579;-73
2022/02/13 03:18:30;;;;;;;3.40;3.10;;;;;20.30;100627.00;;;;2061459;28;20293;-72
2022/02/13 03:19:30;;;;;;;3.47;3.17;;;;;20.30;100626.00;;;;2062185;28;20246;-73
2022/02/13 03:20:30;;;;;;;3.67;3.30;;;;;20.30;100624.00;;;;2061471;28;20215;-73
2022/02/13 03:21:31;;;;;;;3.50;3.10;;;;;20.30;100620.00;;;;2060494;28;20222;-73
2022/02/13 03:22:31;;;;;;;3.40;3.03;;;;;20.20;100625.00;;;;2058235;28;20297;-73
2022/02/13 03:23:31;;;;;;;4.90;3.30;;;;;20.30;100619.00;;;;2062167;28;20212;-73
2022/02/13 03:24:32;;;;;;;3.43;3.00;;;;;20.20;100615.00;;;;2062145;28;20220;-73
2022/02/13 03:25:32;;;;;;;4.00;3.30;;;;;20.20;100610.00;;;;2062243;28;20679;-73
2022/02/13 03:26:33;;;;;;;3.93;2.80;;;;;20.30;100602.00;;;;2061717;28;20206;-73
2022/02/13 03:27:33;;;;;;;3.90;3.17;;;;;20.20;100604.00;;;;2061398;28;20257;-73
2022/02/13 03:28:34;;;;;;;3.70;3.20;;;;;20.20;100605.00;;;;2061349;28;20450;-73
2022/02/13 03:29:34;;;;;;;4.17;2.87;;;;;20.20;100608.00;;;;2061399;28;20250;-73
2022/02/13 03:30:34;;;;;;;4.77;3.27;;;;;20.20;100609.00;;;;2061404;28;20211;-73
2022/02/13 03:31:35;;;;;;;3.43;3.13;;;;;20.20;100606.00;;;;2062089;28;20215;-73
2022/02/13 03:32:35;;;;;;;3.43;3.13;;;;;20.20;100605.00;;;;2062074;28;21413;-73
2022/02/13 03:33:36;;;;;;;3.43;2.90;;;;;20.20;100594.00;;;;2062236;28;20745;-73
2022/02/13 03:34:36;;;;;;;3.58;2.97;;;;;20.20;100596.00;;;;2061664;28;20223;-73
2022/02/13 03:35:37;;;;;;;3.73;3.27;;;;;20.20;100602.00;;;;2062294;28;20284;-73
2022/02/13 03:36:37;;;;;;;3.60;3.10;;;;;20.20;100603.00;;;;2063824;28;20289;-73
2022/02/13 03:37:40;;;;;;;4.70;3.30;;;;;20.20;100601.00;;;;2061379;28;20234;-73
2022/02/13 03:38:40;;;;;;;4.65;3.60;;;;;20.20;100603.00;;;;2060870;28;20314;-73
2022/02/13 03:39:41;;;;;;;3.40;2.87;;;;;20.20;100610.00;;;;2053705;28;20319;-73
2022/02/13 03:40:41;;;;;;;4.50;2.83;;;;;20.20;100611.00;;;;2059157;28;20219;-73
2022/02/13 03:41:42;;;;;;;3.80;3.23;;;;;20.20;100615.00;;;;2068582;28;20242;-73
2022/02/13 03:42:42;;;;;;;4.40;3.50;;;;;20.20;100615.00;;;;2061220;28;20218;-73
2022/02/13 03:43:42;;;;;;;5.63;3.40;;;;;20.20;100618.00;;;;2064150;28;20206;-73
2022/02/13 03:44:43;;;;;;;3.37;3.03;;;;;20.20;100615.00;;;;2062181;28;20215;-74
2022/02/13 03:45:43;;;;;;;3.20;2.77;;;;;20.20;100605.00;;;;2061302;28;20215;-73
2022/02/13 03:46:43;;;;;;;3.03;2.73;;;;;20.20;100609.00;;;;2060262;28;20667;-73
2022/02/13 03:47:44;;;;;;;4.37;3.13;;;;;20.20;100603.00;;;;2060454;28;20785;-73
2022/02/13 03:48:44;;;;;;;4.47;3.00;;;;;20.20;100601.00;;;;2060750;28;20219;-73
2022/02/13 03:49:45;;;;;;;3.27;2.90;;;;;20.20;100606.00;;;;2060217;28;20252;-73
2022/02/13 03:50:45;;;;;;;3.43;3.13;;;;;20.20;100607.00;;;;2059899;28;20211;-73
2022/02/13 03:51:45;;;;;;;3.30;2.80;;;;;20.20;100607.00;;;;2059789;28;20226;-73
2022/02/13 03:52:46;;;;;;;4.17;2.90;;;;;20.20;100601.00;;;;2059941;28;20235;-74
2022/02/13 03:53:46;;;;;;;3.87;3.43;;;;;20.20;100607.00;;;;2059949;28;20218;-73
2022/02/13 03:54:46;;;;;;;2.97;2.63;;;;;20.20;100610.00;;;;2060077;28;20208;-73
2022/02/13 03:55:47;;;;;;;3.60;3.07;;;;;20.20;100611.00;;;;2060312;28;20247;-73
2022/02/13 03:56:47;;;;;;;5.23;3.20;;;;;20.20;100607.00;;;;2060541;28;20216;-73
2022/02/13 03:57:48;;;;;;;3.50;2.50;;;;;20.20;100600.00;;;;2051924;28;20711;-73
2022/02/13 03:58:48;;;;;;;3.63;2.80;;;;;20.20;100606.00;;;;2052061;28;20226;-74
2022/02/13 03:59:48;;;;;;;4.73;2.97;;;;;20.20;100601.00;;;;2060672;28;20709;-73
2022/02/13 04:00:49;;;;;;;2.80;2.40;;;;;20.20;100597.00;;;;2058876;28;20222;-74
2022/02/13 04:01:49;;;;;;;3.80;3.50;;;;;20.10;100595.00;;;;2059146;28;20210;-73
2022/02/13 04:02:55;;;;;;;3.40;2.90;;;;;20.10;100602.00;;;;2060020;28;20638;-74
2022/02/13 04:03:55;;;;;;;3.50;3.10;;;;;20.10;100600.00;;;;2059803;28;20683;-72
2022/02/13 04:04:57;;;;;;;2.93;2.60;;;;;20.10;100596.00;;;;2060070;28;20216;-74
2022/02/13 04:05:58;;;;;;;3.45;2.70;;;;;20.10;100586.00;;;;2059932;28;20215;-73
2022/02/13 04:06:58;;;;;;;3.03;2.70;;;;;20.10;100595.00;;;;2060688;28;20207;-73
2022/02/13 04:07:58;;;;;;;4.40;3.10;;;;;20.10;100600.00;;;;2059744;28;20221;-73
2022/02/13 04:08:59;;;;;;;3.40;3.10;;;;;20.10;100593.00;;;;2061376;28;20207;-73
2022/02/13 04:09:59;;;;;;;3.67;2.73;;;;;20.10;100590.00;;;;2060722;28;20238;-74
2022/02/13 04:11:00;;;;;;;3.43;2.53;;;;;20.10;100592.00;;;;2060325;28;20207;-73
2022/02/13 04:12:01;;;;;;;3.20;2.90;;;;;20.10;100595.00;;;;2060467;28;20223;-73
2022/02/13 04:13:01;;;;;;;3.03;2.63;;;;;20.10;100595.00;;;;2060642;28;20211;-73
2022/02/13 04:14:01;;;;;;;3.60;2.90;;;;;20.10;100604.00;;;;2060718;28;20212;-74
2022/02/13 04:15:02;;;;;;;4.07;3.20;;;;;20.10;100582.00;;;;2059729;28;20622;-73
2022/02/13 04:16:02;;;;;;;2.83;2.63;;;;;20.10;100587.00;;;;2060090;28;20633;-73
2022/02/13 04:17:03;;;;;;;3.10;2.80;;;;;20.10;100593.00;;;;2059687;28;20227;-73
2022/02/13 04:18:13;;;;;;;3.20;2.90;;;;;20.10;100590.00;;;;2059418;28;20721;-73
2022/02/13 04:19:13;;;;;;;3.40;2.60;;;;;20.10;100592.00;;;;2060394;28;20222;-74
2022/02/13 04:20:14;;;;;;;5.23;2.93;;;;;20.10;100588.00;;;;2060658;28;20246;-73
2022/02/13 04:21:14;;;;;;;3.53;2.90;;;;;20.10;100576.00;;;;2060274;28;20219;-74
2022/02/13 04:22:14;;;;;;;3.17;2.87;;;;;20.10;100583.00;;;;2060548;28;20215;-73
2022/02/13 04:23:15;;;;;;;3.00;2.70;;;;;20.10;100578.00;;;;2060199;28;20215;-73
2022/02/13 04:24:15;;;;;;;3.07;2.57;;;;;20.10;100576.00;;;;2059683;28;20214;-74
2022/02/13 04:25:15;;;;;;;2.97;2.67;;;;;20.10;100575.00;;;;2059638;28;20713;-74
2022/02/13 04:26:16;;;;;;;3.27;2.97;;;;;20.10;100576.00;;;;2059565;28;20691;-74
2022/02/13 04:27:16;;;;;;;3.50;3.10;;;;;20.10;100566.00;;;;2059887;28;20294;-74
2022/02/13 04:28:16;;;;;;;2.90;2.70;;;;;20.10;100567.00;;;;2060534;28;20220;-74
2022/02/13 04:29:17;;;;;;;3.93;2.50;;;;;20.00;100561.00;;;;2059830;28;20239;-74
2022/02/13 04:30:17;;;;;;;2.90;2.57;;;;;20.10;100558.00;;;;2059738;28;20219;-73
2022/02/13 04:31:17;;;;;;;4.20;3.10;;;;;20.00;100564.00;;;;2051647;28;20266;-74
2022/02/13 04:32:18;;;;;;;2.83;2.63;;;;;20.00;100553.00;;;;2051038;28;20242;-73
2022/02/13 04:33:18;;;;;;;2.57;2.37;;;;;20.00;100549.00;;;;2058926;28;20226;-73
2022/02/13 04:34:18;;;;;;;3.67;2.80;;;;;20.00;100550.00;;;;2059442;28;20215;-73
2022/02/13 04:35:19;;;;;;;3.77;2.63;;;;;20.00;100546.00;;;;2059719;28;20226;-73
2022/02/13 04:36:19;;;;;;;5.50;3.00;;;;;20.00;100548.00;;;;2063008;28;20214;-73
2022/02/13 04:37:22;;;;;;;3.20;2.47;;;;;20.00;100545.00;;;;2059668;28;20741;-73
2022/02/13 04:38:22;;;;;;;3.20;2.90;;;;;20.00;100539.00;;;;2059565;28;20292;-74
2022/02/13 04:39:22;;;;;;;3.17;2.97;;;;;20.00;100545.00;;;;2059698;28;20637;-74
2022/02/13 04:40:23;;;;;;;3.23;2.97;;;;;20.10;100543.00;;;;2059144;28;20274;-73
2022/02/13 04:41:23;;;;;;;3.23;2.77;;;;;20.00;100540.00;;;;2059539;28;20215;-73
2022/02/13 04:42:23;;;;;;;2.60;2.40;;;;;20.00;100544.00;;;;2060455;28;20591;-74
2022/02/13 04:43:24;;;;;;;3.70;3.03;;;;;20.00;100540.00;;;;2060348;28;20744;-74
2022/02/13 04:44:24;;;;;;;3.00;2.70;;;;;20.00;100536.00;;;;2060149;28;20746;-73
2022/02/13 04:45:25;;;;;;;2.97;2.63;;;;;20.00;100537.00;;;;2060428;28;20235;-73
2022/02/13 04:46:25;;;;;;;4.23;2.50;;;;;20.00;100536.00;;;;2053368;28;20294;-74
2022/02/13 04:47:25;;;;;;;3.13;2.83;;;;;20.00;100536.00;;;;2050712;28;20231;-73
2022/02/13 04:48:26;;;;;;;2.60;2.37;;;;;20.00;100535.00;;;;2059422;28;20256;-73
2022/02/13 04:49:26;;;;;;;2.80;2.50;;;;;20.00;100529.00;;;;2059625;28;20216;-74
2022/02/13 04:50:26;;;;;;;5.03;2.80;;;;;20.00;100529.00;;;;2059197;28;20313;-74
2022/02/13 04:51:27;;;;;;;3.33;2.90;;;;;20.00;100507.00;;;;2060038;28;20218;-74
2022/02/13 04:52:27;;;;;;;3.53;2.60;;;;;20.00;100528.00;;;;2060415;28;20282;-73
2022/02/13 04:53:27;;;;;;;2.83;2.40;;;;;20.00;100527.00;;;;2058911;28;20603;-73
2022/02/13 04:54:28;;;;;;;3.70;3.30;;;;;20.00;100526.00;;;;2058499;28;20652;-70
2022/02/13 04:55:28;;;;;;;3.43;2.93;;;;;20.00;100521.00;;;;2059494;28;20219;-73
2022/02/13 04:56:28;;;;;;;2.73;2.43;;;;;20.00;100536.00;;;;2059018;28;20242;-71
2022/02/13 04:57:29;;;;;;;2.70;2.50;;;;;20.00;100516.00;;;;2060297;28;20207;-72
2022/02/13 04:58:29;;;;;;;3.10;2.60;;;;;20.00;100526.00;;;;2059714;28;20217;-72